Time;durP1;ratioP1;P1;durP2;ratioP2;P2;SDS_P1;SDS_P2;PMS_P1;PMS_P2;Temp;Humidity;BMP_temperature;BMP_pressure;BME280_temperature;BME280_humidity;BME280_pressure;Samples;Min_cycle;Max_cycle;Signal;HPM_P1;HPM_P2
2022/10/24 00:01:14;237822.00;0.79;411.00;0.00;0.00;0.62;;;;;21.50;1.00;;;;;;2284254;61;945;-89
2022/10/24 00:03:42;434651.00;1.45;749.38;44808.00;0.15;78.21;;;;;21.60;1.00;;;;;;2284031;61;1533;-89
2022/10/24 00:06:14;266078.00;0.89;459.60;56138.00;0.19;97.80;;;;;21.80;1.00;;;;;;2284225;61;1516;-89
2022/10/24 00:08:43;119847.00;0.40;207.82;0.00;0.00;0.62;;;;;21.50;1.00;;;;;;2284238;61;2056;-88
2022/10/24 00:11:16;413194.00;1.38;712.49;0.00;0.00;0.62;;;;;21.30;1.00;;;;;;2284306;61;1513;-88
2022/10/24 00:13:44;223235.00;0.74;385.91;0.00;0.00;0.62;;;;;21.20;1.00;;;;;;2284231;61;981;-88
2022/10/24 00:16:12;304761.00;1.02;526.10;33588.00;0.11;58.79;;;;;21.20;1.00;;;;;;2284212;61;1516;-87
2022/10/24 00:18:42;524083.00;1.75;903.30;121882.00;0.41;211.33;;;;;21.10;1.00;;;;;;2284284;61;2000;-88
2022/10/24 00:21:09;486448.00;1.62;838.49;72846.00;0.24;126.68;;;;;21.10;1.00;;;;;;2284290;61;1035;-87
2022/10/24 00:23:37;348493.00;1.16;601.27;0.00;0.00;0.62;;;;;21.20;1.00;;;;;;2284236;61;1403;-87
2022/10/24 00:26:05;245773.00;0.82;424.68;36049.00;0.12;63.05;;;;;21.50;1.00;;;;;;2284186;61;1347;-87
2022/10/24 00:28:40;374641.00;1.25;646.21;0.00;0.00;0.62;;;;;21.50;1.00;;;;;;2284226;61;1559;-87
2022/10/24 00:33:37;1053654.00;3.51;1827.74;0.00;0.00;0.62;;;;;21.90;1.00;;;;;;2282095;61;1352;-88
2022/10/24 00:36:04;348539.00;1.16;601.35;66065.00;0.22;114.96;;;;;22.00;1.00;;;;;;2280178;61;1620;-89
2022/10/24 00:38:31;216586.00;0.72;374.47;55616.00;0.19;96.90;;;;;22.00;1.00;;;;;;2279959;61;2016;-90
2022/10/24 00:40:59;381559.00;1.27;658.11;60408.00;0.20;105.18;;;;;22.00;1.00;;;;;;2280193;61;1587;-87
2022/10/24 00:43:29;274888.00;0.92;474.75;0.00;0.00;0.62;;;;;21.80;1.00;;;;;;2280741;61;1455;-89
2022/10/24 00:46:03;196267.00;0.65;339.50;54769.00;0.18;95.43;;;;;21.60;1.00;;;;;;2280881;61;1649;-89
2022/10/24 00:48:35;246333.00;0.82;425.64;0.00;0.00;0.62;;;;;21.70;1.00;;;;;;2280934;61;1010;-91
2022/10/24 00:51:06;494423.00;1.65;852.22;90690.00;0.30;157.50;;;;;21.80;1.00;;;;;;2280754;61;1472;-89
2022/10/24 00:53:40;191022.00;0.64;330.47;73755.00;0.25;128.25;;;;;21.40;1.00;;;;;;2280739;61;1421;-89
2022/10/24 00:56:13;414962.00;1.38;715.53;49376.00;0.16;86.11;;;;;21.30;1.00;;;;;;2280617;61;1581;-88
2022/10/24 01:01:12;869095.00;2.90;1501.90;0.00;0.00;0.62;;;;;21.00;1.00;;;;;;2286651;60;1422;-89
2022/10/24 01:03:39;398156.00;1.33;686.64;59650.00;0.20;103.87;;;;;20.90;1.00;;;;;;2284794;60;1695;-90
2022/10/24 01:08:47;1051516.00;3.51;1823.93;0.00;0.00;0.62;;;;;20.60;1.00;;;;;;2278631;61;1404;-89
2022/10/24 01:11:33;172650.00;0.58;298.83;0.00;0.00;0.62;;;;;20.70;1.00;;;;;;2276591;61;1561;-89
2022/10/24 01:19:15;1005876.00;3.35;1742.88;0.00;0.00;0.62;;;;;20.60;1.00;;;;;;2286673;60;1983;-89
2022/10/24 01:21:48;375757.00;1.25;648.13;64951.00;0.22;113.03;;;;;20.80;1.00;;;;;;2284848;60;1451;-87
2022/10/24 01:27:18;747452.00;2.49;1289.63;0.00;0.00;0.62;;;;;20.70;1.00;;;;;;2282212;61;1410;-87
2022/10/24 01:29:53;386107.00;1.29;665.92;0.00;0.00;0.62;;;;;20.70;1.00;;;;;;2284596;55;3746;-88
2022/10/24 01:32:33;118447.00;0.39;205.40;52358.00;0.17;91.26;;;;;20.80;1.00;;;;;;2284765;61;929;-88
2022/10/24 01:35:07;112082.00;0.37;194.42;0.00;0.00;0.62;;;;;20.80;1.00;;;;;;2284757;61;1434;-88
2022/10/24 01:37:41;155113.00;0.52;268.62;0.00;0.00;0.62;;;;;21.00;1.00;;;;;;2284702;61;1919;-88
2022/10/24 01:40:16;313468.00;1.04;541.07;22292.00;0.07;39.24;;;;;20.80;1.00;;;;;;2284929;61;988;-87
2022/10/24 01:42:46;142569.00;0.48;247.00;0.00;0.00;0.62;;;;;20.90;1.00;;;;;;2284763;61;1638;-87
2022/10/24 01:45:23;271417.00;0.90;468.78;0.00;0.00;0.62;;;;;20.80;1.00;;;;;;2284678;61;1442;-88
2022/10/24 01:47:54;209580.00;0.70;362.41;0.00;0.00;0.62;;;;;20.90;1.00;;;;;;2284737;61;1598;-87
2022/10/24 01:50:24;226770.00;0.76;391.99;0.00;0.00;0.62;;;;;20.90;1.00;;;;;;2284734;61;2093;-87
2022/10/24 01:52:55;239244.00;0.80;413.45;21336.00;0.07;37.58;;;;;21.10;1.00;;;;;;2284791;61;1040;-88
2022/10/24 01:55:23;178143.00;0.59;308.29;0.00;0.00;0.62;;;;;21.20;1.00;;;;;;2284804;61;1407;-88
2022/10/24 01:57:50;248356.00;0.83;429.12;56257.00;0.19;98.01;;;;;21.20;1.00;;;;;;2284756;61;1990;-87
2022/10/24 02:00:21;109036.00;0.36;189.17;0.00;0.00;0.62;;;;;21.20;1.00;;;;;;2284741;61;1025;-86
2022/10/24 02:02:54;63483.00;0.21;110.50;0.00;0.00;0.62;;;;;21.30;1.00;;;;;;2284709;61;998;-90
2022/10/24 02:05:27;206243.00;0.69;356.67;0.00;0.00;0.62;;;;;21.50;1.00;;;;;;2284631;61;1688;-88
2022/10/24 02:07:56;691117.00;2.30;1191.84;52011.00;0.17;90.66;;;;;21.60;1.00;;;;;;2284748;61;1655;-90
2022/10/24 02:10:28;188480.00;0.63;326.09;0.00;0.00;0.62;;;;;21.60;1.00;;;;;;2284739;61;990;-89
2022/10/24 02:12:59;401086.00;1.34;691.67;41269.00;0.14;72.08;;;;;21.70;1.00;;;;;;2284746;61;1036;-89
2022/10/24 02:15:33;265276.00;0.88;458.22;29498.00;0.10;51.71;;;;;21.70;1.00;;;;;;2284699;61;1461;-88
2022/10/24 02:18:01;169385.00;0.56;293.21;0.00;0.00;0.62;;;;;21.70;1.00;;;;;;2284605;61;2014;-88
2022/10/24 02:20:33;166022.00;0.55;287.41;0.00;0.00;0.62;;;;;21.80;1.00;;;;;;2284679;61;1587;-86
2022/10/24 02:23:06;689612.00;2.30;1189.23;120300.00;0.40;208.60;;;;;21.60;1.00;;;;;;2284621;61;1676;-88
2022/10/24 02:25:36;218735.00;0.73;378.17;0.00;0.00;0.62;;;;;21.40;1.00;;;;;;2284630;61;1551;-88
2022/10/24 02:28:09;266086.00;0.89;459.61;13368.00;0.04;23.78;;;;;21.20;1.00;;;;;;2284723;61;875;-88
2022/10/24 02:30:45;532678.00;1.78;918.11;87232.00;0.29;151.53;;;;;21.30;1.00;;;;;;2284523;61;1030;-86
2022/10/24 02:33:15;262191.00;0.87;452.92;0.00;0.00;0.62;;;;;21.30;1.00;;;;;;2284649;61;2248;-89
2022/10/24 02:35:45;332191.00;1.11;573.25;36388.00;0.12;63.64;;;;;21.40;1.00;;;;;;2284408;61;1519;-88
2022/10/24 02:38:18;326853.00;1.09;564.08;33470.00;0.11;58.59;;;;;21.40;1.00;;;;;;2284501;61;2020;-88
2022/10/24 02:40:48;358135.00;1.19;617.84;0.00;0.00;0.62;;;;;21.40;1.00;;;;;;2284690;61;1022;-88
2022/10/24 02:43:21;397553.00;1.33;685.60;0.00;0.00;0.62;;;;;21.40;1.00;;;;;;2284571;61;1164;-88
2022/10/24 02:45:51;373795.00;1.25;644.76;136522.00;0.46;236.57;;;;;21.30;1.00;;;;;;2286323;55;3853;-90
2022/10/24 02:48:25;596993.00;1.99;1029.03;87190.00;0.29;151.46;;;;;21.40;1.00;;;;;;2284558;61;1119;-87
2022/10/24 02:53:25;1419867.00;4.73;2493.22;135736.00;0.45;235.22;;;;;21.10;1.00;;;;;;2283028;61;1308;-89
2022/10/24 02:55:52;612878.00;2.04;1056.46;74694.00;0.25;129.87;;;;;20.90;1.00;;;;;;2280464;61;1297;-88
2022/10/24 02:58:19;551754.00;1.84;950.98;67327.00;0.22;117.14;;;;;20.90;1.00;;;;;;2280476;61;1920;-87
2022/10/24 03:00:46;410346.00;1.37;707.59;113945.00;0.38;197.64;;;;;20.90;1.00;;;;;;2280391;61;2210;-90
2022/10/24 03:03:15;618310.00;2.06;1065.85;62665.00;0.21;109.08;;;;;20.80;1.00;;;;;;2280382;61;1009;-89
2022/10/24 03:05:44;702959.00;2.34;1212.37;139669.00;0.47;242.00;;;;;20.70;1.00;;;;;;2280148;61;1481;-89
2022/10/24 03:08:13;576977.00;1.92;994.48;145031.00;0.48;251.24;;;;;20.50;1.00;;;;;;2280317;61;1678;-87
2022/10/24 03:13:09;742728.00;2.48;1281.42;65574.00;0.22;114.11;;;;;20.50;1.00;;;;;;2285983;60;1413;-90
2022/10/24 03:15:37;618239.00;2.06;1065.72;128187.00;0.43;222.20;;;;;20.60;1.00;;;;;;2284278;60;1773;-88
2022/10/24 03:18:04;824186.00;2.75;1423.34;222152.00;0.74;384.05;;;;;20.50;1.00;;;;;;2284300;60;1927;-88
2022/10/24 03:25:39;1175466.00;3.92;2045.92;72089.00;0.24;125.37;;;;;20.60;1.00;;;;;;2282254;61;1339;-88
2022/10/24 03:28:07;656497.00;2.19;1131.88;96183.00;0.32;166.98;;;;;20.70;1.00;;;;;;2280313;61;1475;-90
2022/10/24 03:30:37;603985.00;2.01;1041.10;78622.00;0.26;136.66;;;;;20.70;1.00;;;;;;2280342;61;999;-87
2022/10/24 03:33:06;867384.00;2.89;1498.91;142662.00;0.48;247.16;;;;;20.90;1.00;;;;;;2280236;61;1796;-88
2022/10/24 03:35:33;444233.00;1.48;765.86;9290.00;0.03;16.72;;;;;20.60;1.00;;;;;;2280118;61;1326;-89
2022/10/24 03:38:00;610865.00;2.04;1052.98;68633.00;0.23;119.40;;;;;20.60;1.00;;;;;;2280296;61;2002;-88
2022/10/24 03:40:30;279346.00;0.93;482.41;0.00;0.00;0.62;;;;;20.80;1.00;;;;;;2280347;61;1016;-87
2022/10/24 03:43:00;460100.00;1.53;793.16;46792.00;0.16;81.64;;;;;20.90;1.00;;;;;;2280278;61;1476;-89
2022/10/24 03:45:27;843753.00;2.81;1457.54;150775.00;0.50;261.14;;;;;20.90;1.00;;;;;;2280194;61;1569;-89
2022/10/24 03:47:57;350945.00;1.17;605.49;0.00;0.00;0.62;;;;;20.90;1.00;;;;;;2280216;61;1358;-89
2022/10/24 03:50:24;455430.00;1.52;785.12;53258.00;0.18;92.82;;;;;20.80;1.00;;;;;;2280210;61;1495;-87
2022/10/24 03:52:57;717113.00;2.39;1236.93;0.00;0.00;0.62;;;;;20.90;1.00;;;;;;2280143;61;987;-89
2022/10/24 03:55:28;232902.00;0.78;402.54;0.00;0.00;0.62;;;;;20.90;1.00;;;;;;2280203;61;1450;-89
2022/10/24 03:58:00;142202.00;0.47;246.37;0.00;0.00;0.62;;;;;21.00;1.00;;;;;;2280249;61;1916;-88
2022/10/24 04:00:29;298272.00;0.99;514.95;0.00;0.00;0.62;;;;;21.00;1.00;;;;;;2280172;61;1613;-87
2022/10/24 04:02:56;387656.00;1.29;668.59;7741.00;0.03;14.04;;;;;21.00;1.00;;;;;;2280166;61;1509;-88
2022/10/24 04:05:23;417730.00;1.39;720.29;56302.00;0.19;98.08;;;;;21.10;1.00;;;;;;2280211;61;1392;-89
2022/10/24 04:07:50;265467.00;0.88;458.55;0.00;0.00;0.62;;;;;21.20;1.00;;;;;;2280074;61;1143;-90
2022/10/24 04:10:17;362757.00;1.21;625.79;20979.00;0.07;36.97;;;;;21.10;1.00;;;;;;2280310;61;1009;-89
2022/10/24 04:38:02;499583.00;1.67;861.11;0.00;0.00;0.62;;;;;21.10;1.00;;;;;;1646974;39;3442;-90
2022/10/24 04:45:34;1302983.00;4.34;2277.57;34054.00;0.11;59.60;;;;;21.10;1.00;;;;;;2287372;61;1281;-91
2022/10/24 04:50:31;1285020.00;4.28;2244.72;0.00;0.00;0.62;;;;;21.20;1.00;;;;;;2286727;60;1412;-89
2022/10/24 04:53:00;297192.00;0.99;513.09;21548.00;0.07;37.95;;;;;21.10;1.00;;;;;;2285990;55;3848;-89
2022/10/24 04:57:55;1324259.00;4.41;2316.57;33025.00;0.11;57.82;;;;;20.80;1.00;;;;;;2282615;61;1404;-86
2022/10/24 05:02:58;272755.00;0.91;471.08;0.00;0.00;0.62;;;;;20.90;1.00;;;;;;862457;39;3194;-90
2022/10/24 05:05:25;573666.00;1.91;988.77;11480.00;0.04;20.51;;;;;20.90;1.00;;;;;;2284501;60;1399;-89
2022/10/24 05:12:54;1488822.00;4.96;2622.10;98101.00;0.33;170.29;;;;;20.60;1.00;;;;;;2282497;61;1209;-88
2022/10/24 05:20:25;1462879.00;4.88;2573.46;0.00;0.00;0.62;;;;;20.80;1.00;;;;;;2278755;61;1926;-90
2022/10/24 05:22:52;227807.00;0.76;393.78;0.00;0.00;0.62;;;;;20.60;1.00;;;;;;2276580;61;1548;-88
2022/10/24 05:25:20;408640.00;1.36;704.66;28259.00;0.09;49.57;;;;;20.40;1.00;;;;;;2278108;61;1400;-89
2022/10/24 05:27:46;277787.00;0.93;479.73;0.00;0.00;0.62;;;;;20.60;1.00;;;;;;2280580;61;1360;-87
2022/10/24 05:30:18;211178.00;0.70;365.16;0.00;0.00;0.62;;;;;21.00;1.00;;;;;;2280536;61;1511;-88
2022/10/24 05:32:45;563836.00;1.88;971.82;68747.00;0.23;119.60;;;;;21.10;1.00;;;;;;2280669;61;1048;-88
2022/10/24 05:35:17;276521.00;0.92;477.56;35852.00;0.12;62.71;;;;;21.30;1.00;;;;;;2280555;61;1591;-88
2022/10/24 05:37:43;691614.00;2.31;1192.70;73359.00;0.24;127.56;;;;;21.40;1.00;;;;;;2280603;61;1580;-89
2022/10/24 05:40:12;379390.00;1.26;654.38;67036.00;0.22;116.64;;;;;21.40;1.00;;;;;;2280526;61;1926;-89
2022/10/24 05:42:41;605030.00;2.02;1042.91;129555.00;0.43;224.56;;;;;21.50;1.00;;;;;;2280533;61;988;-88
2022/10/24 05:45:11;865668.00;2.89;1495.90;189534.00;0.63;327.91;;;;;21.40;1.00;;;;;;2280530;61;1602;-88
2022/10/24 05:47:39;393079.00;1.31;677.91;94325.00;0.31;163.78;;;;;21.30;1.00;;;;;;2280655;61;989;-88
2022/10/24 05:50:07;703949.00;2.35;1214.09;153356.00;0.51;265.59;;;;;21.40;1.00;;;;;;2280686;61;989;-89
2022/10/24 05:52:35;544255.00;1.81;938.06;95880.00;0.32;166.46;;;;;21.60;1.00;;;;;;2280461;61;1013;-88
2022/10/24 05:55:03;370992.00;1.24;639.94;67825.00;0.23;118.00;;;;;21.60;1.00;;;;;;2280458;61;1268;-89
2022/10/24 05:57:30;528608.00;1.76;911.09;66386.00;0.22;115.51;;;;;21.50;1.00;;;;;;2280419;61;1608;-88
2022/10/24 05:59:57;678923.00;2.26;1170.71;162622.00;0.54;281.56;;;;;21.20;1.00;;;;;;2280463;61;2004;-89
2022/10/24 06:02:25;422300.00;1.41;728.15;71373.00;0.24;124.13;;;;;21.00;1.00;;;;;;2280404;61;978;-89
2022/10/24 06:04:55;518268.00;1.73;893.28;64375.00;0.21;112.04;;;;;20.80;1.00;;;;;;2280513;61;1643;-88
2022/10/24 06:07:23;381360.00;1.27;657.76;61971.00;0.21;107.88;;;;;20.90;1.00;;;;;;2280560;61;1521;-90
2022/10/24 06:09:51;611834.00;2.04;1054.66;147457.00;0.49;255.42;;;;;21.00;1.00;;;;;;2280382;61;1018;-87
2022/10/24 06:12:18;678980.00;2.26;1170.81;102454.00;0.34;177.81;;;;;21.00;1.00;;;;;;2280539;61;1521;-89
2022/10/24 06:14:47;616717.00;2.06;1063.09;119541.00;0.40;207.29;;;;;20.90;1.00;;;;;;2280404;61;1368;-89
2022/10/24 06:17:17;397097.00;1.32;684.81;69155.00;0.23;120.30;;;;;20.80;1.00;;;;;;2280514;61;1561;-89
2022/10/24 06:22:28;721303.00;2.40;1244.20;10719.00;0.04;19.19;;;;;20.70;1.00;;;;;;2279886;61;1038;-89
2022/10/24 06:24:56;414275.00;1.38;714.35;0.00;0.00;0.62;;;;;20.70;1.00;;;;;;2280335;61;1325;-89
2022/10/24 06:27:23;348868.00;1.16;601.92;81833.00;0.27;142.20;;;;;20.70;1.00;;;;;;2280397;61;911;-88
2022/10/24 06:29:56;268639.00;0.90;464.00;0.00;0.00;0.62;;;;;20.80;1.00;;;;;;2280413;61;1116;-89
2022/10/24 06:32:29;209648.00;0.70;362.53;0.00;0.00;0.62;;;;;21.10;1.00;;;;;;2280402;61;1611;-88
2022/10/24 06:35:00;327039.00;1.09;564.40;0.00;0.00;0.62;;;;;21.20;1.00;;;;;;2280456;61;1543;-89
2022/10/24 06:37:32;291769.00;0.97;503.77;0.00;0.00;0.62;;;;;21.20;1.00;;;;;;2280506;61;987;-89
2022/10/24 06:40:04;203919.00;0.68;352.67;0.00;0.00;0.62;;;;;21.10;1.00;;;;;;2280318;61;1919;-88
2022/10/24 06:42:34;172243.00;0.57;298.13;26153.00;0.09;45.92;;;;;21.10;1.00;;;;;;2280504;61;1538;-88
2022/10/24 06:45:03;405656.00;1.35;699.53;4198.00;0.01;7.90;;;;;21.10;1.00;;;;;;2280478;61;1911;-87
2022/10/24 06:47:31;197089.00;0.66;340.91;0.00;0.00;0.62;;;;;21.10;1.00;;;;;;2280511;61;886;-89
2022/10/24 06:52:38;1296149.00;4.32;2265.06;0.00;0.00;0.62;;;;;21.30;1.00;;;;;;2221935;59;1836;-89
2022/10/24 06:55:07;202507.00;0.68;350.24;77266.00;0.26;134.31;;;;;21.30;1.00;;;;;;2280983;61;1725;-89
2022/10/24 06:57:40;397817.00;1.33;686.05;0.00;0.00;0.62;;;;;21.40;1.00;;;;;;2280300;61;1502;-88
2022/10/24 07:02:42;1568949.00;5.23;2773.54;10664.00;0.04;19.10;;;;;21.00;1.00;;;;;;2278657;61;1327;-89
2022/10/24 07:05:14;315490.00;1.05;544.55;90191.00;0.30;156.64;;;;;21.10;1.00;;;;;;2276318;61;1442;-88
2022/10/24 07:07:43;319366.00;1.06;551.21;66754.00;0.22;116.15;;;;;21.20;1.00;;;;;;2276349;61;896;-88
2022/10/24 07:10:15;512690.00;1.71;883.67;116922.00;0.39;202.77;;;;;21.20;1.00;;;;;;2276280;61;1444;-89
2022/10/24 07:12:44;705499.00;2.35;1216.78;170412.00;0.57;294.98;;;;;21.20;1.00;;;;;;2276357;61;785;-90
2022/10/24 07:15:13;202817.00;0.68;350.77;0.00;0.00;0.62;;;;;21.40;1.00;;;;;;2276187;61;1575;-90
2022/10/24 07:17:44;452337.00;1.51;779.80;69604.00;0.23;121.08;;;;;21.30;1.00;;;;;;2276245;61;1459;-88
2022/10/24 07:20:15;480275.00;1.60;827.87;0.00;0.00;0.62;;;;;21.40;1.00;;;;;;2276286;61;2000;-91
2022/10/24 07:22:46;656633.00;2.19;1132.11;139791.00;0.47;242.21;;;;;21.40;1.00;;;;;;2276264;61;2155;-89
2022/10/24 07:25:13;345767.00;1.15;596.59;0.00;0.00;0.62;;;;;21.40;1.00;;;;;;2276191;61;1391;-90
2022/10/24 07:27:42;648767.00;2.16;1118.50;0.00;0.00;0.62;;;;;21.30;1.00;;;;;;2276206;61;1440;-88
2022/10/24 07:30:17;384315.00;1.28;662.84;27461.00;0.09;48.19;;;;;21.40;1.00;;;;;;2276215;61;1620;-87
2022/10/24 07:32:44;528812.00;1.76;911.44;61311.00;0.20;106.74;;;;;21.30;1.00;;;;;;2276293;61;1398;-88
2022/10/24 07:35:14;204604.00;0.68;353.85;0.00;0.00;0.62;;;;;21.30;1.00;;;;;;2276150;61;1565;-88
2022/10/24 07:37:43;375913.00;1.25;648.40;0.00;0.00;0.62;;;;;21.20;1.00;;;;;;2276344;61;1022;-89
2022/10/24 07:40:11;377948.00;1.26;651.90;0.00;0.00;0.62;;;;;21.30;1.00;;;;;;2276168;61;2004;-90
2022/10/24 07:42:41;450587.00;1.50;776.79;53023.00;0.18;92.41;;;;;21.30;1.00;;;;;;2276220;61;1494;-89
2022/10/24 07:45:12;446463.00;1.49;769.70;78432.00;0.26;136.33;;;;;21.10;1.00;;;;;;2276235;61;1496;-88
2022/10/24 07:47:39;380293.00;1.27;655.93;0.00;0.00;0.62;;;;;21.10;1.00;;;;;;2276130;61;1515;-88
2022/10/24 07:50:14;418252.00;1.39;721.18;0.00;0.00;0.62;;;;;21.00;1.00;;;;;;2276168;61;1526;-88
2022/10/24 07:52:45;246946.00;0.82;426.70;0.00;0.00;0.62;;;;;21.10;1.00;;;;;;2276905;61;1042;-90
2022/10/24 07:55:12;249065.00;0.83;430.34;0.00;0.00;0.62;;;;;21.10;1.10;;;;;;2276816;61;1512;-88
2022/10/24 07:57:40;469048.00;1.56;808.55;6351.00;0.02;11.63;;;;;21.20;1.00;;;;;;2276899;61;1570;-88
2022/10/24 08:00:09;356866.00;1.19;615.66;74941.00;0.25;130.30;;;;;21.40;1.00;;;;;;2276850;61;2030;-90
2022/10/24 08:02:36;409263.00;1.36;705.73;0.00;0.00;0.62;;;;;21.30;1.00;;;;;;2276868;61;1337;-89
2022/10/24 08:05:04;613923.00;2.05;1058.27;52362.00;0.17;91.27;;;;;21.60;1.00;;;;;;2276871;61;1435;-91
2022/10/24 08:07:32;546051.00;1.82;941.15;31504.00;0.11;55.19;;;;;21.70;1.00;;;;;;2276877;61;1114;-90
2022/10/24 08:10:01;361389.00;1.20;623.44;12906.00;0.04;22.98;;;;;21.40;1.00;;;;;;2276857;61;1921;-89
2022/10/24 08:12:31;252452.00;0.84;436.17;62985.00;0.21;109.64;;;;;21.40;1.00;;;;;;2276787;61;1490;-88
2022/10/24 08:17:31;2503638.00;8.35;4714.96;130677.00;0.44;226.50;;;;;20.80;1.90;;;;;;2286413;60;1427;-87
2022/10/24 08:20:00;283283.00;0.94;489.18;0.00;0.00;0.62;;;;;20.40;3.20;;;;;;2284994;60;1921;-87
2022/10/24 08:22:28;610413.00;2.03;1052.20;55474.00;0.18;96.65;;;;;20.50;3.40;;;;;;2284995;60;1479;-88
2022/10/24 08:24:58;375156.00;1.25;647.10;93329.00;0.31;162.06;;;;;20.90;2.20;;;;;;2284854;60;1348;-89
2022/10/24 08:27:27;367058.00;1.22;633.18;37276.00;0.12;65.18;;;;;21.10;3.00;;;;;;2284970;60;1498;-89
2022/10/24 08:29:57;451897.00;1.51;779.05;86052.00;0.29;149.49;;;;;21.20;1.60;;;;;;2285041;60;974;-88
2022/10/24 08:32:25;595032.00;1.98;1025.64;66793.00;0.22;116.22;;;;;21.20;2.20;;;;;;2284993;60;1631;-89
2022/10/24 09:39:27;1885377.00;6.28;3391.56;97669.00;0.33;169.55;;;;;20.70;1.00;;;;;;2399682;39;3576;-88
2022/10/24 10:17:14;1581182.00;5.27;2796.83;24076.00;0.08;42.33;;;;;21.30;1.00;;;;;;1681730;40;3588;-89
2022/10/24 10:24:50;2051861.00;6.84;3731.36;0.00;0.00;0.62;;;;;21.00;1.00;;;;;;2296983;40;3486;-88
2022/10/24 10:30:15;1911674.00;6.37;3444.51;43069.00;0.14;75.20;;;;;20.70;1.00;;;;;;2282738;61;1334;-90
2022/10/24 10:35:19;1550103.00;5.17;2737.76;82462.00;0.27;143.29;;;;;20.60;1.00;;;;;;2278909;61;1253;-89
2022/10/24 11:28:27;1654715.00;5.52;2937.77;0.00;0.00;0.62;;;;;21.80;1.00;;;;;;2286027;60;1496;-88
2022/10/24 11:31:00;219963.00;0.73;380.28;0.00;0.00;0.62;;;;;21.50;1.00;;;;;;2284436;60;1015;-87
2022/10/24 11:33:34;218937.00;0.73;378.51;76630.00;0.26;133.22;;;;;21.40;1.00;;;;;;2284265;60;1531;-89
2022/10/24 11:36:09;305977.00;1.02;528.19;65976.00;0.22;114.81;;;;;21.20;1.00;;;;;;2284248;60;1553;-89
2022/10/24 11:38:46;259199.00;0.86;447.77;0.00;0.00;0.62;;;;;21.30;1.00;;;;;;2322860;39;3573;-89
2022/10/24 12:04:16;1730077.00;5.77;3084.01;49832.00;0.17;86.90;;;;;22.30;1.00;;;;;;2292534;55;3667;-89
2022/10/24 12:14:38;1586193.00;5.29;2806.38;0.00;0.00;0.62;;;;;22.50;1.00;;;;;;2301720;56;3584;-88
2022/10/24 12:29:37;1565274.00;5.22;2766.56;225614.00;0.75;390.00;;;;;22.90;1.00;;;;;;2367578;39;3513;-91
2022/10/24 12:44:51;1585020.00;5.28;2804.14;0.00;0.00;0.62;;;;;22.90;1.00;;;;;;2282558;61;1435;-90
2022/10/24 12:47:39;567081.00;1.89;977.41;92437.00;0.31;160.52;;;;;22.80;1.00;;;;;;2280794;61;1543;-88
2022/10/24 12:55:52;1502919.00;5.01;2648.61;108885.00;0.36;188.91;;;;;22.70;1.00;;;;;;2282485;61;1464;-89
2022/10/24 13:03:48;1423028.00;4.74;2499.10;111056.00;0.37;192.65;;;;;22.90;1.00;;;;;;2283378;61;1275;-91
2022/10/24 13:09:07;1375200.00;4.58;2410.41;0.00;0.00;0.62;;;;;23.20;1.00;;;;;;2283177;61;1350;-91
2022/10/24 16:30:11;1661118.00;5.54;2950.12;0.00;0.00;0.62;;;;;19.70;1.00;;;;;;832639;56;3584;-88
2022/10/24 16:32:38;842913.00;2.81;1456.07;0.00;0.00;0.62;;;;;19.90;1.00;;;;;;2286937;60;1430;-86
2022/10/24 16:35:06;236008.00;0.79;407.88;0.00;0.00;0.62;;;;;19.90;1.00;;;;;;2285033;60;1603;-88
2022/10/24 16:37:33;265733.00;0.89;459.01;0.00;0.00;0.62;;;;;20.00;1.00;;;;;;2284980;60;1111;-88
2022/10/24 16:40:00;290272.00;0.97;501.20;0.00;0.00;0.62;;;;;19.80;1.00;;;;;;2285038;60;1909;-86
2022/10/24 16:42:27;335371.00;1.12;578.72;0.00;0.00;0.62;;;;;19.60;1.00;;;;;;2285002;60;1574;-88
2022/10/24 16:44:55;337261.00;1.12;581.97;0.00;0.00;0.62;;;;;19.70;1.00;;;;;;2284943;60;1810;-87
2022/10/24 16:47:24;349203.00;1.16;602.49;0.00;0.00;0.62;;;;;19.70;1.00;;;;;;2302788;39;3740;-87
2022/10/24 16:49:55;549438.00;1.83;946.99;31323.00;0.10;54.87;;;;;19.80;1.00;;;;;;2284987;60;1541;-88
2022/10/24 16:52:23;243530.00;0.81;420.82;63219.00;0.21;110.04;;;;;19.70;1.00;;;;;;2285029;60;1602;-87
2022/10/24 16:54:49;150541.00;0.50;260.74;0.00;0.00;0.62;;;;;19.80;1.00;;;;;;2284958;60;1366;-86
2022/10/24 16:57:17;318029.00;1.06;548.91;0.00;0.00;0.62;;;;;19.80;1.00;;;;;;2284960;60;1015;-88
2022/10/24 16:59:43;430782.00;1.44;742.73;86128.00;0.29;149.62;;;;;19.90;1.00;;;;;;2286765;55;3739;-89
2022/10/24 17:02:14;455977.00;1.52;786.06;0.00;0.00;0.62;;;;;19.90;1.00;;;;;;2307962;40;3460;-88
2022/10/24 17:04:42;328114.00;1.09;566.24;0.00;0.00;0.62;;;;;20.10;1.00;;;;;;2284921;60;1505;-87
2022/10/24 17:07:10;208823.00;0.70;361.11;0.00;0.00;0.62;;;;;20.10;1.00;;;;;;2284984;60;1043;-88
2022/10/24 17:09:37;233895.00;0.78;404.25;0.00;0.00;0.62;;;;;20.20;1.00;;;;;;2284962;60;1129;-89
2022/10/24 17:12:05;283415.00;0.94;489.41;0.00;0.00;0.62;;;;;20.20;1.00;;;;;;2284975;60;948;-86
2022/10/24 17:14:36;264597.00;0.88;457.05;0.00;0.00;0.62;;;;;20.10;1.00;;;;;;2284971;60;1070;-87
2022/10/24 17:17:03;337458.00;1.12;582.30;28245.00;0.09;49.55;;;;;20.10;1.00;;;;;;2284905;60;1043;-86
2022/10/24 17:19:31;344029.00;1.15;593.60;0.00;0.00;0.62;;;;;20.00;1.00;;;;;;2284795;60;1002;-86
2022/10/24 17:21:59;323070.00;1.08;557.57;0.00;0.00;0.62;;;;;20.10;1.00;;;;;;2284893;60;1915;-89
2022/10/24 17:24:27;203495.00;0.68;351.94;0.00;0.00;0.62;;;;;20.10;1.00;;;;;;2284701;60;1543;-88
2022/10/24 17:26:57;355894.00;1.19;613.99;20012.00;0.07;35.29;;;;;20.10;1.00;;;;;;2284879;60;1376;-88
2022/10/24 17:29:29;131666.00;0.44;228.20;0.00;0.00;0.62;;;;;20.00;1.00;;;;;;2284889;60;1116;-87
2022/10/24 17:31:57;52833.00;0.18;92.09;0.00;0.00;0.62;;;;;19.90;1.00;;;;;;2284909;60;1037;-88
2022/10/24 17:34:26;89055.00;0.30;154.68;0.00;0.00;0.62;;;;;20.10;1.00;;;;;;2284915;60;1093;-88
2022/10/24 17:37:06;388151.00;1.29;669.44;14496.00;0.05;25.74;;;;;20.00;1.00;;;;;;2284821;60;1670;-88
2022/10/24 17:39:44;149666.00;0.50;259.23;0.00;0.00;0.62;;;;;19.60;1.00;;;;;;2284836;60;1064;-88
2022/10/24 17:42:11;117713.00;0.39;204.14;0.00;0.00;0.62;;;;;19.30;1.00;;;;;;2284836;60;1991;-89
2022/10/24 17:44:38;138200.00;0.46;239.47;0.00;0.00;0.62;;;;;19.30;1.00;;;;;;2284762;60;1261;-86
2022/10/24 17:47:06;139839.00;0.47;242.29;49107.00;0.16;85.64;;;;;19.50;1.00;;;;;;2284801;60;991;-89
2022/10/24 17:49:33;143588.00;0.48;248.76;0.00;0.00;0.62;;;;;19.60;1.00;;;;;;2284834;60;1105;-85
2022/10/24 17:52:02;303587.00;1.01;524.09;0.00;0.00;0.62;;;;;19.40;1.00;;;;;;2284826;60;1001;-89
2022/10/24 17:54:31;42999.00;0.14;75.08;0.00;0.00;0.62;;;;;19.70;1.00;;;;;;2284784;60;1600;-88
2022/10/24 17:56:57;318750.00;1.06;550.15;11031.00;0.04;19.74;;;;;19.80;1.00;;;;;;2284773;60;1277;-88
2022/10/24 17:59:25;37004.00;0.12;64.70;0.00;0.00;0.62;;;;;20.00;1.00;;;;;;2284767;60;1135;-87
2022/10/24 18:01:52;311049.00;1.04;536.91;14567.00;0.05;25.86;;;;;19.80;1.00;;;;;;2284587;60;2002;-86
2022/10/24 18:04:19;206469.00;0.69;357.06;18678.00;0.06;32.98;;;;;19.90;1.00;;;;;;2284705;60;1654;-86
2022/10/24 18:06:46;250545.00;0.84;432.89;0.00;0.00;0.62;;;;;20.00;1.00;;;;;;2284684;60;1362;-87
2022/10/24 18:09:14;428993.00;1.43;739.65;73738.00;0.25;128.22;;;;;20.20;1.00;;;;;;2284725;60;1053;-88
2022/10/24 18:11:42;168387.00;0.56;291.49;0.00;0.00;0.62;;;;;20.20;1.00;;;;;;2284741;60;1482;-87
2022/10/24 18:14:09;38738.00;0.13;67.70;0.00;0.00;0.62;;;;;20.20;1.00;;;;;;2284730;60;1024;-88
2022/10/24 18:16:38;114813.00;0.38;199.13;0.00;0.00;0.62;;;;;20.20;1.00;;;;;;2284735;60;1371;-87
2022/10/24 18:19:05;390437.00;1.30;673.37;0.00;0.00;0.62;;;;;20.30;1.00;;;;;;2284770;60;993;-87
2022/10/24 18:21:33;169810.00;0.57;293.94;0.00;0.00;0.62;;;;;20.40;1.00;;;;;;2296043;39;3599;-88
2022/10/24 18:23:59;20531.00;0.07;36.19;0.00;0.00;0.62;;;;;20.50;1.00;;;;;;2285338;61;1600;-88